sensor_id;sensor_type;location;lat;lon;timestamp;temperature;humidity
16635;DHT22;8431;52.458;9.998;2022-07-18T00:00:05;12.50;99.90
16635;DHT22;8431;52.458;9.998;2022-07-18T00:02:33;12.40;99.90
16635;DHT22;8431;52.458;9.998;2022-07-18T00:05:01;12.30;99.90
16635;DHT22;8431;52.458;9.998;2022-07-18T00:07:28;12.20;99.90
16635;DHT22;8431;52.458;9.998;2022-07-18T00:09:55;12.20;99.90
16635;DHT22;8431;52.458;9.998;2022-07-18T00:12:22;12.20;99.90
16635;DHT22;8431;52.458;9.998;2022-07-18T00:14:49;12.20;99.90
16635;DHT22;8431;52.458;9.998;2022-07-18T00:17:18;12.10;99.90
16635;DHT22;8431;52.458;9.998;2022-07-18T00:19:45;12.10;99.90
16635;DHT22;8431;52.458;9.998;2022-07-18T00:22:12;12.00;99.90
16635;DHT22;8431;52.458;9.998;2022-07-18T00:24:40;11.90;99.90
16635;DHT22;8431;52.458;9.998;2022-07-18T00:27:07;11.90;99.90
16635;DHT22;8431;52.458;9.998;2022-07-18T00:29:34;11.90;99.90
16635;DHT22;8431;52.458;9.998;2022-07-18T00:32:03;11.90;99.90
16635;DHT22;8431;52.458;9.998;2022-07-18T00:34:32;11.80;99.90
16635;DHT22;8431;52.458;9.998;2022-07-18T00:36:59;11.80;99.90
16635;DHT22;8431;52.458;9.998;2022-07-18T00:39:26;11.70;99.90
16635;DHT22;8431;52.458;9.998;2022-07-18T00:41:53;11.70;99.90
16635;DHT22;8431;52.458;9.998;2022-07-18T00:44:22;11.80;99.90
16635;DHT22;8431;52.458;9.998;2022-07-18T00:46:50;11.80;99.90
16635;DHT22;8431;52.458;9.998;2022-07-18T00:49:18;11.80;99.90
16635;DHT22;8431;52.458;9.998;2022-07-18T00:51:46;11.80;99.90
16635;DHT22;8431;52.458;9.998;2022-07-18T00:54:13;11.70;99.90
16635;DHT22;8431;52.458;9.998;2022-07-18T00:56:42;11.70;99.90
16635;DHT22;8431;52.458;9.998;2022-07-18T00:59:10;11.70;99.90
16635;DHT22;8431;52.458;9.998;2022-07-18T01:01:37;11.70;99.90
16635;DHT22;8431;52.458;9.998;2022-07-18T01:04:13;11.60;99.90
16635;DHT22;8431;52.458;9.998;2022-07-18T01:06:41;11.50;99.90
16635;DHT22;8431;52.458;9.998;2022-07-18T01:09:10;11.50;99.90
16635;DHT22;8431;52.458;9.998;2022-07-18T01:11:37;11.40;99.90
16635;DHT22;8431;52.458;9.998;2022-07-18T01:14:05;11.40;99.90
16635;DHT22;8431;52.458;9.998;2022-07-18T01:16:33;11.40;99.90
16635;DHT22;8431;52.458;9.998;2022-07-18T01:19:00;11.40;99.90
16635;DHT22;8431;52.458;9.998;2022-07-18T01:21:29;11.40;99.90
16635;DHT22;8431;52.458;9.998;2022-07-18T01:23:57;11.30;99.90
16635;DHT22;8431;52.458;9.998;2022-07-18T01:26:24;11.30;99.90
16635;DHT22;8431;52.458;9.998;2022-07-18T01:28:51;11.30;99.90
16635;DHT22;8431;52.458;9.998;2022-07-18T01:31:18;11.30;99.90
16635;DHT22;8431;52.458;9.998;2022-07-18T01:33:45;11.30;99.90
16635;DHT22;8431;52.458;9.998;2022-07-18T01:36:12;11.30;99.90
16635;DHT22;8431;52.458;9.998;2022-07-18T01:38:41;11.30;99.90
16635;DHT22;8431;52.458;9.998;2022-07-18T01:41:08;11.30;99.90
16635;DHT22;8431;52.458;9.998;2022-07-18T01:43:39;11.20;99.90
16635;DHT22;8431;52.458;9.998;2022-07-18T01:46:08;11.30;99.90
16635;DHT22;8431;52.458;9.998;2022-07-18T01:48:36;11.20;99.90
16635;DHT22;8431;52.458;9.998;2022-07-18T01:51:04;11.10;99.90
16635;DHT22;8431;52.458;9.998;2022-07-18T01:53:36;11.10;99.90
16635;DHT22;8431;52.458;9.998;2022-07-18T01:56:05;11.10;99.90
16635;DHT22;8431;52.458;9.998;2022-07-18T01:58:32;11.00;99.90
16635;DHT22;8431;52.458;9.998;2022-07-18T02:00:59;11.10;99.90
16635;DHT22;8431;52.458;9.998;2022-07-18T02:03:26;11.10;99.90
16635;DHT22;8431;52.458;9.998;2022-07-18T02:05:53;11.00;99.90
16635;DHT22;8431;52.458;9.998;2022-07-18T02:08:20;11.00;99.90
16635;DHT22;8431;52.458;9.998;2022-07-18T02:10:47;10.90;99.90
16635;DHT22;8431;52.458;9.998;2022-07-18T02:13:15;10.90;99.90
16635;DHT22;8431;52.458;9.998;2022-07-18T02:15:45;10.80;99.90
16635;DHT22;8431;52.458;9.998;2022-07-18T02:18:13;10.80;99.90
16635;DHT22;8431;52.458;9.998;2022-07-18T02:20:40;10.80;99.90
16635;DHT22;8431;52.458;9.998;2022-07-18T02:23:07;10.90;99.90
16635;DHT22;8431;52.458;9.998;2022-07-18T02:25:34;10.90;99.90
16635;DHT22;8431;52.458;9.998;2022-07-18T02:28:01;11.00;99.90
16635;DHT22;8431;52.458;9.998;2022-07-18T02:30:30;11.00;99.90
16635;DHT22;8431;52.458;9.998;2022-07-18T02:32:57;11.00;99.90
16635;DHT22;8431;52.458;9.998;2022-07-18T02:35:24;10.90;99.90
16635;DHT22;8431;52.458;9.998;2022-07-18T02:37:51;10.90;99.90
16635;DHT22;8431;52.458;9.998;2022-07-18T02:40:18;10.80;99.90
16635;DHT22;8431;52.458;9.998;2022-07-18T02:42:45;10.90;99.90
16635;DHT22;8431;52.458;9.998;2022-07-18T02:45:12;10.80;99.90
16635;DHT22;8431;52.458;9.998;2022-07-18T02:47:41;10.70;99.90
16635;DHT22;8431;52.458;9.998;2022-07-18T02:50:10;10.70;99.90
16635;DHT22;8431;52.458;9.998;2022-07-18T02:52:39;10.70;99.90
16635;DHT22;8431;52.458;9.998;2022-07-18T02:55:07;10.70;99.90
16635;DHT22;8431;52.458;9.998;2022-07-18T02:57:34;10.70;99.90
16635;DHT22;8431;52.458;9.998;2022-07-18T03:00:02;10.70;99.90
16635;DHT22;8431;52.458;9.998;2022-07-18T03:02:29;10.70;99.90
16635;DHT22;8431;52.458;9.998;2022-07-18T03:04:58;10.70;99.90
16635;DHT22;8431;52.458;9.998;2022-07-18T03:07:25;10.70;99.90
16635;DHT22;8431;52.458;9.998;2022-07-18T03:09:52;10.60;99.90
16635;DHT22;8431;52.458;9.998;2022-07-18T03:12:19;10.60;99.90
16635;DHT22;8431;52.458;9.998;2022-07-18T03:14:46;10.60;99.90
16635;DHT22;8431;52.458;9.998;2022-07-18T03:17:13;10.60;99.90
16635;DHT22;8431;52.458;9.998;2022-07-18T03:19:40;10.60;99.90
16635;DHT22;8431;52.458;9.998;2022-07-18T03:22:09;10.60;99.90
16635;DHT22;8431;52.458;9.998;2022-07-18T03:24:36;10.60;99.90
16635;DHT22;8431;52.458;9.998;2022-07-18T03:27:03;10.50;99.90
16635;DHT22;8431;52.458;9.998;2022-07-18T03:29:30;10.60;99.90
16635;DHT22;8431;52.458;9.998;2022-07-18T03:31:57;10.60;99.90
16635;DHT22;8431;52.458;9.998;2022-07-18T03:34:24;10.60;99.90
16635;DHT22;8431;52.458;9.998;2022-07-18T03:36:51;10.60;99.90
16635;DHT22;8431;52.458;9.998;2022-07-18T03:39:19;10.60;99.90
16635;DHT22;8431;52.458;9.998;2022-07-18T03:41:46;10.60;99.90
16635;DHT22;8431;52.458;9.998;2022-07-18T03:44:13;10.70;99.90
16635;DHT22;8431;52.458;9.998;2022-07-18T03:46:40;10.70;99.90
16635;DHT22;8431;52.458;9.998;2022-07-18T03:49:07;10.70;99.90
16635;DHT22;8431;52.458;9.998;2022-07-18T03:51:34;10.80;99.90
16635;DHT22;8431;52.458;9.998;2022-07-18T03:54:02;10.90;99.90
16635;DHT22;8431;52.458;9.998;2022-07-18T03:56:30;10.90;99.90
16635;DHT22;8431;52.458;9.998;2022-07-18T03:58:57;11.10;99.90
16635;DHT22;8431;52.458;9.998;2022-07-18T04:01:24;11.20;99.90
16635;DHT22;8431;52.458;9.998;2022-07-18T04:03:51;11.30;99.90
16635;DHT22;8431;52.458;9.998;2022-07-18T04:06:18;11.40;99.90
16635;DHT22;8431;52.458;9.998;2022-07-18T04:08:46;11.50;99.90
16635;DHT22;8431;52.458;9.998;2022-07-18T04:11:13;11.60;99.90
16635;DHT22;8431;52.458;9.998;2022-07-18T04:13:41;11.70;99.90
16635;DHT22;8431;52.458;9.998;2022-07-18T04:16:08;11.80;99.90
16635;DHT22;8431;52.458;9.998;2022-07-18T04:18:35;12.00;99.90
16635;DHT22;8431;52.458;9.998;2022-07-18T04:21:02;12.10;99.90
16635;DHT22;8431;52.458;9.998;2022-07-18T04:23:29;12.20;99.90
16635;DHT22;8431;52.458;9.998;2022-07-18T04:25:56;12.40;99.90
16635;DHT22;8431;52.458;9.998;2022-07-18T04:28:24;12.50;99.90
16635;DHT22;8431;52.458;9.998;2022-07-18T04:30:52;12.70;99.90
16635;DHT22;8431;52.458;9.998;2022-07-18T04:33:19;12.90;99.90
16635;DHT22;8431;52.458;9.998;2022-07-18T04:35:47;13.00;99.90
16635;DHT22;8431;52.458;9.998;2022-07-18T04:38:15;13.10;99.90
16635;DHT22;8431;52.458;9.998;2022-07-18T04:40:42;13.00;99.90
16635;DHT22;8431;52.458;9.998;2022-07-18T04:43:09;13.00;99.90
16635;DHT22;8431;52.458;9.998;2022-07-18T04:45:36;13.10;99.90
16635;DHT22;8431;52.458;9.998;2022-07-18T04:48:06;13.10;99.90
16635;DHT22;8431;52.458;9.998;2022-07-18T04:50:33;13.00;99.90
16635;DHT22;8431;52.458;9.998;2022-07-18T04:53:00;12.90;99.90
16635;DHT22;8431;52.458;9.998;2022-07-18T04:55:27;13.00;99.90
16635;DHT22;8431;52.458;9.998;2022-07-18T04:57:55;13.00;99.90
16635;DHT22;8431;52.458;9.998;2022-07-18T05:00:24;13.10;99.90
16635;DHT22;8431;52.458;9.998;2022-07-18T05:02:53;13.30;99.90
16635;DHT22;8431;52.458;9.998;2022-07-18T05:05:22;13.40;99.90
16635;DHT22;8431;52.458;9.998;2022-07-18T05:07:50;13.60;99.90
16635;DHT22;8431;52.458;9.998;2022-07-18T05:10:19;13.70;99.90
16635;DHT22;8431;52.458;9.998;2022-07-18T05:12:48;13.80;99.90
16635;DHT22;8431;52.458;9.998;2022-07-18T05:15:17;13.90;99.90
16635;DHT22;8431;52.458;9.998;2022-07-18T05:17:44;14.10;99.90
16635;DHT22;8431;52.458;9.998;2022-07-18T05:20:14;14.30;99.90
16635;DHT22;8431;52.458;9.998;2022-07-18T05:22:43;14.40;99.90
16635;DHT22;8431;52.458;9.998;2022-07-18T05:25:12;14.60;99.90
16635;DHT22;8431;52.458;9.998;2022-07-18T05:27:40;14.70;99.90
16635;DHT22;8431;52.458;9.998;2022-07-18T05:30:10;14.80;99.90
16635;DHT22;8431;52.458;9.998;2022-07-18T05:32:38;15.00;99.90
16635;DHT22;8431;52.458;9.998;2022-07-18T05:35:06;15.20;99.90
16635;DHT22;8431;52.458;9.998;2022-07-18T05:37:33;15.40;99.90
16635;DHT22;8431;52.458;9.998;2022-07-18T05:40:06;15.60;99.90
16635;DHT22;8431;52.458;9.998;2022-07-18T05:42:33;15.80;99.90
16635;DHT22;8431;52.458;9.998;2022-07-18T05:45:01;16.20;99.90
16635;DHT22;8431;52.458;9.998;2022-07-18T05:47:28;16.90;99.90
16635;DHT22;8431;52.458;9.998;2022-07-18T05:49:55;17.10;99.90
16635;DHT22;8431;52.458;9.998;2022-07-18T05:52:22;17.30;99.90
16635;DHT22;8431;52.458;9.998;2022-07-18T05:54:49;17.50;99.90
16635;DHT22;8431;52.458;9.998;2022-07-18T05:57:18;17.80;99.90
16635;DHT22;8431;52.458;9.998;2022-07-18T05:59:45;18.10;99.90
16635;DHT22;8431;52.458;9.998;2022-07-18T06:02:12;18.30;99.90
16635;DHT22;8431;52.458;9.998;2022-07-18T06:04:39;18.50;99.90
16635;DHT22;8431;52.458;9.998;2022-07-18T06:07:06;18.50;99.90
16635;DHT22;8431;52.458;9.998;2022-07-18T06:09:33;18.50;99.90
16635;DHT22;8431;52.458;9.998;2022-07-18T06:12:04;18.50;99.90
16635;DHT22;8431;52.458;9.998;2022-07-18T06:14:32;18.40;99.90
16635;DHT22;8431;52.458;9.998;2022-07-18T06:16:59;18.10;99.90
16635;DHT22;8431;52.458;9.998;2022-07-18T06:19:26;18.10;99.90
16635;DHT22;8431;52.458;9.998;2022-07-18T06:21:54;18.20;99.90
16635;DHT22;8431;52.458;9.998;2022-07-18T06:24:21;18.40;99.90
16635;DHT22;8431;52.458;9.998;2022-07-18T06:26:48;18.70;99.90
16635;DHT22;8431;52.458;9.998;2022-07-18T06:29:15;19.00;99.90
16635;DHT22;8431;52.458;9.998;2022-07-18T06:31:44;19.80;99.90
16635;DHT22;8431;52.458;9.998;2022-07-18T06:34:11;21.20;99.90
16635;DHT22;8431;52.458;9.998;2022-07-18T06:36:38;22.10;99.90
16635;DHT22;8431;52.458;9.998;2022-07-18T06:39:05;22.00;99.90
16635;DHT22;8431;52.458;9.998;2022-07-18T06:41:37;21.90;99.90
16635;DHT22;8431;52.458;9.998;2022-07-18T06:44:04;21.60;99.90
16635;DHT22;8431;52.458;9.998;2022-07-18T06:46:31;21.30;99.90
16635;DHT22;8431;52.458;9.998;2022-07-18T06:48:59;21.30;99.90
16635;DHT22;8431;52.458;9.998;2022-07-18T06:51:27;21.20;99.90
16635;DHT22;8431;52.458;9.998;2022-07-18T06:53:54;21.30;99.90
16635;DHT22;8431;52.458;9.998;2022-07-18T06:56:21;21.40;99.90
16635;DHT22;8431;52.458;9.998;2022-07-18T06:58:48;21.30;99.90
16635;DHT22;8431;52.458;9.998;2022-07-18T07:01:17;21.30;99.90
16635;DHT22;8431;52.458;9.998;2022-07-18T07:03:44;21.30;99.90
16635;DHT22;8431;52.458;9.998;2022-07-18T07:06:13;21.50;99.90
16635;DHT22;8431;52.458;9.998;2022-07-18T07:08:41;21.50;99.90
16635;DHT22;8431;52.458;9.998;2022-07-18T07:11:08;21.70;99.90
16635;DHT22;8431;52.458;9.998;2022-07-18T07:13:36;21.90;99.90
16635;DHT22;8431;52.458;9.998;2022-07-18T07:16:03;21.90;99.90
16635;DHT22;8431;52.458;9.998;2022-07-18T07:18:30;21.90;99.90
16635;DHT22;8431;52.458;9.998;2022-07-18T07:20:58;21.90;99.90
16635;DHT22;8431;52.458;9.998;2022-07-18T07:23:26;22.00;99.90
16635;DHT22;8431;52.458;9.998;2022-07-18T07:25:55;22.30;99.90
16635;DHT22;8431;52.458;9.998;2022-07-18T07:28:22;22.60;99.90
16635;DHT22;8431;52.458;9.998;2022-07-18T07:30:49;23.00;99.90
16635;DHT22;8431;52.458;9.998;2022-07-18T07:33:16;23.10;99.90
16635;DHT22;8431;52.458;9.998;2022-07-18T07:35:43;23.30;99.90
16635;DHT22;8431;52.458;9.998;2022-07-18T07:38:10;23.30;99.90
16635;DHT22;8431;52.458;9.998;2022-07-18T07:40:45;23.50;99.90
16635;DHT22;8431;52.458;9.998;2022-07-18T07:43:13;23.50;99.90
16635;DHT22;8431;52.458;9.998;2022-07-18T07:45:41;23.50;99.90
16635;DHT22;8431;52.458;9.998;2022-07-18T07:48:08;23.50;99.90
16635;DHT22;8431;52.458;9.998;2022-07-18T07:50:35;23.30;99.90
16635;DHT22;8431;52.458;9.998;2022-07-18T07:53:02;23.30;99.90
16635;DHT22;8431;52.458;9.998;2022-07-18T07:55:29;23.40;99.90
16635;DHT22;8431;52.458;9.998;2022-07-18T07:57:58;23.30;99.90
16635;DHT22;8431;52.458;9.998;2022-07-18T08:00:26;23.20;99.90
16635;DHT22;8431;52.458;9.998;2022-07-18T08:02:56;23.20;99.90
16635;DHT22;8431;52.458;9.998;2022-07-18T08:05:24;22.90;99.90
16635;DHT22;8431;52.458;9.998;2022-07-18T08:07:51;22.90;99.90
16635;DHT22;8431;52.458;9.998;2022-07-18T08:10:19;22.80;99.90
16635;DHT22;8431;52.458;9.998;2022-07-18T08:12:46;22.90;99.90
16635;DHT22;8431;52.458;9.998;2022-07-18T08:15:15;23.00;99.90
16635;DHT22;8431;52.458;9.998;2022-07-18T08:17:42;23.00;99.90
16635;DHT22;8431;52.458;9.998;2022-07-18T08:20:10;23.10;99.90
16635;DHT22;8431;52.458;9.998;2022-07-18T08:22:52;23.10;99.90
16635;DHT22;8431;52.458;9.998;2022-07-18T08:25:19;23.10;99.90
16635;DHT22;8431;52.458;9.998;2022-07-18T08:27:46;23.20;99.90
16635;DHT22;8431;52.458;9.998;2022-07-18T08:30:15;23.20;99.90
16635;DHT22;8431;52.458;9.998;2022-07-18T08:32:42;23.10;99.90
16635;DHT22;8431;52.458;9.998;2022-07-18T08:35:10;23.30;99.90
16635;DHT22;8431;52.458;9.998;2022-07-18T08:37:37;23.40;99.90
16635;DHT22;8431;52.458;9.998;2022-07-18T08:40:05;23.50;99.90
16635;DHT22;8431;52.458;9.998;2022-07-18T08:42:33;23.50;99.90
16635;DHT22;8431;52.458;9.998;2022-07-18T08:45:02;23.70;99.90
16635;DHT22;8431;52.458;9.998;2022-07-18T08:47:31;23.80;99.90
16635;DHT22;8431;52.458;9.998;2022-07-18T08:50:00;23.90;99.90
16635;DHT22;8431;52.458;9.998;2022-07-18T08:52:28;24.00;99.00
16635;DHT22;8431;52.458;9.998;2022-07-18T08:54:55;24.10;99.10
16635;DHT22;8431;52.458;9.998;2022-07-18T08:57:23;24.10;99.80
16635;DHT22;8431;52.458;9.998;2022-07-18T08:59:50;24.10;97.70
16635;DHT22;8431;52.458;9.998;2022-07-18T09:02:17;24.30;98.00
16635;DHT22;8431;52.458;9.998;2022-07-18T09:04:46;24.40;98.80
16635;DHT22;8431;52.458;9.998;2022-07-18T09:07:23;24.40;97.00
16635;DHT22;8431;52.458;9.998;2022-07-18T09:09:52;24.60;96.80
16635;DHT22;8431;52.458;9.998;2022-07-18T09:12:20;24.70;96.40
16635;DHT22;8431;52.458;9.998;2022-07-18T09:14:47;24.80;94.90
16635;DHT22;8431;52.458;9.998;2022-07-18T09:17:16;24.80;94.70
16635;DHT22;8431;52.458;9.998;2022-07-18T09:19:58;24.80;95.60
16635;DHT22;8431;52.458;9.998;2022-07-18T09:22:27;25.00;95.30
16635;DHT22;8431;52.458;9.998;2022-07-18T09:24:57;25.00;95.40
16635;DHT22;8431;52.458;9.998;2022-07-18T09:27:26;25.10;95.70
16635;DHT22;8431;52.458;9.998;2022-07-18T09:30:07;25.20;93.80
16635;DHT22;8431;52.458;9.998;2022-07-18T09:32:35;25.40;92.60
16635;DHT22;8431;52.458;9.998;2022-07-18T09:35:09;25.30;93.30
16635;DHT22;8431;52.458;9.998;2022-07-18T09:37:36;25.50;92.60
16635;DHT22;8431;52.458;9.998;2022-07-18T09:40:15;25.60;91.70
16635;DHT22;8431;52.458;9.998;2022-07-18T09:42:42;25.70;91.00
16635;DHT22;8431;52.458;9.998;2022-07-18T09:45:09;25.90;90.30
16635;DHT22;8431;52.458;9.998;2022-07-18T09:47:58;26.00;88.80
16635;DHT22;8431;52.458;9.998;2022-07-18T09:50:30;26.10;88.90
16635;DHT22;8431;52.458;9.998;2022-07-18T09:53:09;26.30;87.90
16635;DHT22;8431;52.458;9.998;2022-07-18T09:55:45;26.50;88.40
16635;DHT22;8431;52.458;9.998;2022-07-18T09:58:15;26.70;87.10
16635;DHT22;8431;52.458;9.998;2022-07-18T10:00:42;26.70;85.30
16635;DHT22;8431;52.458;9.998;2022-07-18T10:03:10;26.90;86.40
16635;DHT22;8431;52.458;9.998;2022-07-18T10:05:40;27.00;87.60
16635;DHT22;8431;52.458;9.998;2022-07-18T10:08:29;27.10;86.90
16635;DHT22;8431;52.458;9.998;2022-07-18T10:11:16;27.40;82.70
16635;DHT22;8431;52.458;9.998;2022-07-18T10:14:04;27.70;82.70
16635;DHT22;8431;52.458;9.998;2022-07-18T10:16:52;27.70;80.30
16635;DHT22;8431;52.458;9.998;2022-07-18T10:19:40;27.80;80.60
16635;DHT22;8431;52.458;9.998;2022-07-18T10:22:29;27.90;83.70
16635;DHT22;8431;52.458;9.998;2022-07-18T10:25:16;27.90;77.60
16635;DHT22;8431;52.458;9.998;2022-07-18T10:28:10;28.10;78.10
16635;DHT22;8431;52.458;9.998;2022-07-18T10:31:12;28.30;77.90
16635;DHT22;8431;52.458;9.998;2022-07-18T10:34:09;28.60;76.60
16635;DHT22;8431;52.458;9.998;2022-07-18T10:37:11;28.30;72.70
16635;DHT22;8431;52.458;9.998;2022-07-18T10:40:24;28.20;74.30
16635;DHT22;8431;52.458;9.998;2022-07-18T10:43:33;28.40;72.90
16635;DHT22;8431;52.458;9.998;2022-07-18T10:46:20;28.50;73.70
16635;DHT22;8431;52.458;9.998;2022-07-18T10:49:08;28.60;71.50
16635;DHT22;8431;52.458;9.998;2022-07-18T10:51:55;28.70;71.40
16635;DHT22;8431;52.458;9.998;2022-07-18T10:58:22;28.70;70.30
16635;DHT22;8431;52.458;9.998;2022-07-18T11:01:15;28.90;70.00
16635;DHT22;8431;52.458;9.998;2022-07-18T11:04:21;28.80;67.60
16635;DHT22;8431;52.458;9.998;2022-07-18T11:07:11;28.80;66.70
16635;DHT22;8431;52.458;9.998;2022-07-18T11:09:59;28.80;67.50
16635;DHT22;8431;52.458;9.998;2022-07-18T11:13:21;28.80;69.10
16635;DHT22;8431;52.458;9.998;2022-07-18T11:16:11;28.80;67.30
16635;DHT22;8431;52.458;9.998;2022-07-18T11:19:25;29.00;67.20
16635;DHT22;8431;52.458;9.998;2022-07-18T11:22:18;29.20;67.10
16635;DHT22;8431;52.458;9.998;2022-07-18T11:25:07;29.10;66.70
16635;DHT22;8431;52.458;9.998;2022-07-18T11:27:54;29.20;67.30
16635;DHT22;8431;52.458;9.998;2022-07-18T11:30:43;29.40;66.50
16635;DHT22;8431;52.458;9.998;2022-07-18T11:33:33;29.50;65.10
16635;DHT22;8431;52.458;9.998;2022-07-18T11:36:22;29.50;66.30
16635;DHT22;8431;52.458;9.998;2022-07-18T11:39:10;29.60;67.40
16635;DHT22;8431;52.458;9.998;2022-07-18T11:41:58;29.80;65.80
16635;DHT22;8431;52.458;9.998;2022-07-18T11:44:57;30.00;66.50
16635;DHT22;8431;52.458;9.998;2022-07-18T11:47:51;30.10;64.90
16635;DHT22;8431;52.458;9.998;2022-07-18T11:50:38;30.20;63.50
16635;DHT22;8431;52.458;9.998;2022-07-18T11:53:27;30.20;63.80
16635;DHT22;8431;52.458;9.998;2022-07-18T11:56:15;30.20;62.30
16635;DHT22;8431;52.458;9.998;2022-07-18T11:59:03;30.20;63.20
16635;DHT22;8431;52.458;9.998;2022-07-18T12:01:51;30.60;64.70
16635;DHT22;8431;52.458;9.998;2022-07-18T12:04:40;30.70;62.40
16635;DHT22;8431;52.458;9.998;2022-07-18T12:07:28;30.90;61.70
16635;DHT22;8431;52.458;9.998;2022-07-18T12:10:16;30.80;61.50
16635;DHT22;8431;52.458;9.998;2022-07-18T12:13:03;30.70;60.70
16635;DHT22;8431;52.458;9.998;2022-07-18T12:15:51;30.40;61.30
16635;DHT22;8431;52.458;9.998;2022-07-18T12:18:48;30.40;60.70
16635;DHT22;8431;52.458;9.998;2022-07-18T12:21:41;30.30;62.20
16635;DHT22;8431;52.458;9.998;2022-07-18T12:24:30;31.00;61.10
16635;DHT22;8431;52.458;9.998;2022-07-18T12:27:19;31.80;60.40
16635;DHT22;8431;52.458;9.998;2022-07-18T12:30:10;32.50;60.40
16635;DHT22;8431;52.458;9.998;2022-07-18T12:32:58;32.80;58.30
16635;DHT22;8431;52.458;9.998;2022-07-18T12:35:48;33.10;57.10
16635;DHT22;8431;52.458;9.998;2022-07-18T12:38:59;33.20;56.30
16635;DHT22;8431;52.458;9.998;2022-07-18T12:41:47;32.90;55.50
16635;DHT22;8431;52.458;9.998;2022-07-18T12:44:34;33.00;54.70
16635;DHT22;8431;52.458;9.998;2022-07-18T12:47:22;32.90;54.50
16635;DHT22;8431;52.458;9.998;2022-07-18T12:50:09;32.90;52.80
16635;DHT22;8431;52.458;9.998;2022-07-18T12:52:57;32.80;54.20
16635;DHT22;8431;52.458;9.998;2022-07-18T12:55:45;33.00;54.10
16635;DHT22;8431;52.458;9.998;2022-07-18T12:58:33;33.30;53.50
16635;DHT22;8431;52.458;9.998;2022-07-18T13:01:20;33.30;52.60
16635;DHT22;8431;52.458;9.998;2022-07-18T13:04:08;32.90;52.80
16635;DHT22;8431;52.458;9.998;2022-07-18T13:06:55;32.40;52.70
16635;DHT22;8431;52.458;9.998;2022-07-18T13:09:43;32.00;52.90
16635;DHT22;8431;52.458;9.998;2022-07-18T13:12:31;31.80;52.70
16635;DHT22;8431;52.458;9.998;2022-07-18T13:15:19;31.90;52.30
16635;DHT22;8431;52.458;9.998;2022-07-18T13:18:07;31.90;51.90
16635;DHT22;8431;52.458;9.998;2022-07-18T13:20:54;31.80;53.10
16635;DHT22;8431;52.458;9.998;2022-07-18T13:23:42;31.90;51.00
16635;DHT22;8431;52.458;9.998;2022-07-18T13:26:29;31.80;52.30
16635;DHT22;8431;52.458;9.998;2022-07-18T13:29:18;32.20;51.20
16635;DHT22;8431;52.458;9.998;2022-07-18T13:32:05;32.60;52.10
16635;DHT22;8431;52.458;9.998;2022-07-18T13:34:55;32.90;51.30
16635;DHT22;8431;52.458;9.998;2022-07-18T13:37:43;33.10;50.90
16635;DHT22;8431;52.458;9.998;2022-07-18T13:40:30;33.50;52.20
16635;DHT22;8431;52.458;9.998;2022-07-18T13:43:18;33.80;51.20
16635;DHT22;8431;52.458;9.998;2022-07-18T13:46:08;33.80;50.40
16635;DHT22;8431;52.458;9.998;2022-07-18T13:48:55;34.00;50.60
16635;DHT22;8431;52.458;9.998;2022-07-18T13:51:42;34.10;49.50
16635;DHT22;8431;52.458;9.998;2022-07-18T13:54:30;34.00;49.30
16635;DHT22;8431;52.458;9.998;2022-07-18T13:57:17;34.30;50.10
16635;DHT22;8431;52.458;9.998;2022-07-18T14:00:06;34.50;47.40
16635;DHT22;8431;52.458;9.998;2022-07-18T14:02:55;34.50;46.80
16635;DHT22;8431;52.458;9.998;2022-07-18T14:05:43;34.20;46.20
16635;DHT22;8431;52.458;9.998;2022-07-18T14:08:30;34.10;47.10
16635;DHT22;8431;52.458;9.998;2022-07-18T14:11:18;34.10;46.80
16635;DHT22;8431;52.458;9.998;2022-07-18T14:14:05;33.60;45.80
16635;DHT22;8431;52.458;9.998;2022-07-18T14:16:53;33.10;46.20
16635;DHT22;8431;52.458;9.998;2022-07-18T14:19:42;32.40;46.50
16635;DHT22;8431;52.458;9.998;2022-07-18T14:22:29;32.00;47.30
16635;DHT22;8431;52.458;9.998;2022-07-18T14:25:17;31.80;47.80
16635;DHT22;8431;52.458;9.998;2022-07-18T14:28:05;31.70;47.70
16635;DHT22;8431;52.458;9.998;2022-07-18T14:30:52;31.80;47.80
16635;DHT22;8431;52.458;9.998;2022-07-18T14:33:39;32.30;48.50
16635;DHT22;8431;52.458;9.998;2022-07-18T14:36:28;32.70;47.60
16635;DHT22;8431;52.458;9.998;2022-07-18T14:39:19;32.80;47.30
16635;DHT22;8431;52.458;9.998;2022-07-18T14:42:07;32.70;46.70
16635;DHT22;8431;52.458;9.998;2022-07-18T14:44:54;32.70;46.40
16635;DHT22;8431;52.458;9.998;2022-07-18T14:47:41;33.00;48.10
16635;DHT22;8431;52.458;9.998;2022-07-18T14:50:28;33.30;46.50
16635;DHT22;8431;52.458;9.998;2022-07-18T14:53:17;33.30;46.40
16635;DHT22;8431;52.458;9.998;2022-07-18T14:56:05;33.20;46.80
16635;DHT22;8431;52.458;9.998;2022-07-18T14:58:52;33.10;46.20
16635;DHT22;8431;52.458;9.998;2022-07-18T15:01:39;33.10;46.80
16635;DHT22;8431;52.458;9.998;2022-07-18T15:04:27;33.20;46.50
16635;DHT22;8431;52.458;9.998;2022-07-18T15:07:14;33.20;47.00
16635;DHT22;8431;52.458;9.998;2022-07-18T15:10:03;33.20;46.70
16635;DHT22;8431;52.458;9.998;2022-07-18T15:12:51;32.90;46.40
16635;DHT22;8431;52.458;9.998;2022-07-18T15:15:38;32.70;47.30
16635;DHT22;8431;52.458;9.998;2022-07-18T15:18:26;32.40;47.50
16635;DHT22;8431;52.458;9.998;2022-07-18T15:21:13;32.20;47.30
16635;DHT22;8431;52.458;9.998;2022-07-18T15:24:00;32.10;46.40
16635;DHT22;8431;52.458;9.998;2022-07-18T15:26:49;32.20;47.10
16635;DHT22;8431;52.458;9.998;2022-07-18T15:29:36;32.20;47.80
16635;DHT22;8431;52.458;9.998;2022-07-18T15:32:24;32.20;48.70
16635;DHT22;8431;52.458;9.998;2022-07-18T15:35:11;32.20;47.30
16635;DHT22;8431;52.458;9.998;2022-07-18T15:37:58;32.20;47.90
16635;DHT22;8431;52.458;9.998;2022-07-18T15:40:46;32.30;47.30
16635;DHT22;8431;52.458;9.998;2022-07-18T15:43:34;32.70;47.00
16635;DHT22;8431;52.458;9.998;2022-07-18T15:46:22;33.10;47.50
16635;DHT22;8431;52.458;9.998;2022-07-18T15:49:09;33.30;45.80
16635;DHT22;8431;52.458;9.998;2022-07-18T15:51:56;33.20;46.20
16635;DHT22;8431;52.458;9.998;2022-07-18T15:54:44;33.30;46.00
16635;DHT22;8431;52.458;9.998;2022-07-18T15:57:31;33.50;48.20
16635;DHT22;8431;52.458;9.998;2022-07-18T16:00:20;33.20;45.70
16635;DHT22;8431;52.458;9.998;2022-07-18T16:03:07;32.90;45.60
16635;DHT22;8431;52.458;9.998;2022-07-18T16:05:54;32.80;46.10
16635;DHT22;8431;52.458;9.998;2022-07-18T16:08:42;32.70;46.30
16635;DHT22;8431;52.458;9.998;2022-07-18T16:11:10;32.60;47.20
16635;DHT22;8431;52.458;9.998;2022-07-18T16:13:37;32.70;48.40
16635;DHT22;8431;52.458;9.998;2022-07-18T16:16:06;32.90;47.20
16635;DHT22;8431;52.458;9.998;2022-07-18T16:18:33;32.90;47.30
16635;DHT22;8431;52.458;9.998;2022-07-18T16:21:00;32.90;46.40
16635;DHT22;8431;52.458;9.998;2022-07-18T16:23:27;33.00;46.40
16635;DHT22;8431;52.458;9.998;2022-07-18T16:25:54;33.40;47.60
16635;DHT22;8431;52.458;9.998;2022-07-18T16:28:22;34.00;46.20
16635;DHT22;8431;52.458;9.998;2022-07-18T16:30:49;35.30;45.30
16635;DHT22;8431;52.458;9.998;2022-07-18T16:33:17;35.90;43.80
16635;DHT22;8431;52.458;9.998;2022-07-18T16:35:44;35.70;43.90
16635;DHT22;8431;52.458;9.998;2022-07-18T16:38:11;36.50;44.90